createdAt,value
2023-12-11T00:00:31.470Z,33.15
2023-12-11T00:01:31.549Z,33.16
2023-12-11T00:02:31.441Z,33.15
2023-12-11T00:03:31.583Z,33.13
2023-12-11T00:04:31.432Z,33.15
2023-12-11T00:05:31.454Z,33.13
2023-12-11T00:06:31.463Z,33.15
2023-12-11T00:07:31.593Z,33.15
2023-12-11T00:08:31.390Z,33.18
2023-12-11T00:09:31.404Z,33.13
2023-12-11T00:10:31.381Z,33.15
2023-12-11T00:11:31.359Z,33.16
2023-12-11T00:12:31.367Z,33.14
2023-12-11T00:13:31.327Z,33.14
2023-12-11T00:14:31.329Z,33.15
2023-12-11T00:15:31.338Z,33.16
2023-12-11T00:16:31.316Z,33.15
2023-12-11T00:17:31.636Z,33.16
2023-12-11T00:18:31.376Z,33.15
2023-12-11T00:19:31.283Z,33.13
2023-12-11T00:20:31.279Z,33.14
2023-12-11T00:21:31.298Z,33.15
2023-12-11T00:22:31.255Z,33.16
2023-12-11T00:23:31.253Z,33.15
2023-12-11T00:24:31.282Z,33.14
2023-12-11T00:25:31.221Z,33.16
2023-12-11T00:26:31.230Z,33.14
2023-12-11T00:27:31.383Z,33.15
2023-12-11T00:28:31.206Z,33.16
2023-12-11T00:29:31.283Z,33.14
2023-12-11T00:30:31.273Z,33.17
2023-12-11T00:31:31.181Z,33.16
2023-12-11T00:32:31.177Z,33.16
2023-12-11T00:33:31.239Z,33.14
2023-12-11T00:34:31.226Z,33.15
2023-12-11T00:35:31.131Z,33.15
2023-12-11T00:36:31.153Z,33.15
2023-12-11T00:37:31.391Z,33.16
2023-12-11T00:38:31.104Z,33.17
2023-12-11T00:39:31.130Z,33.15
2023-12-11T00:40:31.097Z,33.17
2023-12-11T00:41:31.087Z,33.16
2023-12-11T00:42:31.115Z,33.16
2023-12-11T00:43:44.286Z,33.17
2023-12-11T00:44:32.058Z,33.18
2023-12-11T00:45:31.084Z,33.16
2023-12-11T00:46:31.050Z,33.17
2023-12-11T00:47:31.363Z,33.18
2023-12-11T00:48:31.134Z,33.16
2023-12-11T00:49:31.075Z,33.17
2023-12-11T00:50:31.010Z,33.16
2023-12-11T00:51:31.030Z,33.17
2023-12-11T00:52:30.984Z,33.16
2023-12-11T00:53:30.978Z,33.18
2023-12-11T00:54:30.987Z,33.17
2023-12-11T00:55:30.964Z,33.16
2023-12-11T00:56:30.946Z,33.15
2023-12-11T00:57:31.329Z,33.16
2023-12-11T00:58:30.922Z,33.15
2023-12-11T00:59:30.958Z,33.15
2023-12-11T01:00:31.028Z,33.17
2023-12-11T01:01:30.978Z,33.15
2023-12-11T01:02:30.892Z,33.15
2023-12-11T01:03:30.976Z,33.16
2023-12-11T01:04:30.937Z,33.17
2023-12-11T01:05:30.938Z,33.17
2023-12-11T01:06:30.849Z,33.19
2023-12-11T01:07:31.300Z,33.18
2023-12-11T01:08:30.830Z,33.20
2023-12-11T01:09:30.878Z,33.19
2023-12-11T01:10:30.816Z,33.18
2023-12-11T01:11:30.827Z,33.17
2023-12-11T01:12:30.837Z,33.20
2023-12-11T01:13:30.798Z,33.19
2023-12-11T01:14:30.770Z,33.17
2023-12-11T01:15:30.798Z,33.19
2023-12-11T01:16:30.779Z,33.18
2023-12-11T01:17:38.737Z,33.19
2023-12-11T01:18:31.908Z,33.19
2023-12-11T01:19:30.919Z,33.21
2023-12-11T01:20:30.717Z,33.20
2023-12-11T01:21:30.738Z,33.23
2023-12-11T01:22:30.701Z,33.22
2023-12-11T01:23:30.694Z,33.23
2023-12-11T01:24:30.763Z,33.22
2023-12-11T01:25:30.675Z,33.21
2023-12-11T01:26:30.660Z,33.22
2023-12-11T01:27:31.163Z,33.22
2023-12-11T01:28:30.655Z,33.22
2023-12-11T01:29:30.646Z,33.22
2023-12-11T01:30:30.621Z,33.23
2023-12-11T01:31:30.623Z,33.22
2023-12-11T01:32:30.634Z,33.23
2023-12-11T01:33:30.653Z,33.23
2023-12-11T01:34:30.726Z,33.25
2023-12-11T01:35:30.597Z,33.24
2023-12-11T01:36:30.600Z,33.23
2023-12-11T01:37:30.807Z,33.25
2023-12-11T01:38:30.553Z,33.23
2023-12-11T01:39:30.588Z,33.24
2023-12-11T01:40:30.531Z,33.23
2023-12-11T01:41:30.536Z,33.23
2023-12-11T01:42:30.601Z,33.22
2023-12-11T01:43:30.551Z,33.21
2023-12-11T01:44:30.530Z,33.23
2023-12-11T01:45:30.499Z,33.24
2023-12-11T01:46:30.484Z,33.21
2023-12-11T01:47:30.821Z,33.23
2023-12-11T01:48:30.604Z,33.23
2023-12-11T01:49:30.618Z,33.23
2023-12-11T01:50:30.437Z,33.23
2023-12-11T01:51:30.480Z,33.22
2023-12-11T01:52:30.428Z,33.22
2023-12-11T01:53:30.422Z,33.20
2023-12-11T01:54:30.439Z,33.22
2023-12-11T01:55:30.411Z,33.22
2023-12-11T01:56:30.392Z,33.20
2023-12-11T01:57:30.644Z,33.20
2023-12-11T01:58:30.380Z,33.22
2023-12-11T01:59:30.371Z,33.20
2023-12-11T02:00:30.364Z,33.20
2023-12-11T02:01:30.420Z,33.20
2023-12-11T02:02:30.345Z,33.21
2023-12-11T02:03:30.416Z,33.24
2023-12-11T02:04:30.519Z,33.21
2023-12-11T02:05:30.356Z,33.20
2023-12-11T02:06:30.412Z,33.21
2023-12-11T02:07:30.593Z,33.21
2023-12-11T02:08:30.282Z,33.19
2023-12-11T02:09:30.298Z,33.19
2023-12-11T02:10:30.263Z,33.18
2023-12-11T02:11:30.328Z,33.20
2023-12-11T02:12:30.283Z,33.20
2023-12-11T02:13:30.251Z,33.18
2023-12-11T02:14:30.217Z,33.20
2023-12-11T02:15:30.236Z,33.19
2023-12-11T02:16:30.210Z,33.18
2023-12-11T02:17:30.458Z,33.19
2023-12-11T02:18:30.374Z,33.17
2023-12-11T02:19:30.217Z,33.18
2023-12-11T02:20:30.244Z,33.19
2023-12-11T02:21:30.220Z,33.19
2023-12-11T02:22:30.151Z,33.20
2023-12-11T02:23:30.143Z,33.18
2023-12-11T02:24:30.135Z,33.18
2023-12-11T02:25:30.124Z,33.18
2023-12-11T02:26:30.126Z,33.19
2023-12-11T02:27:30.306Z,33.17
2023-12-11T02:28:30.090Z,33.20
2023-12-11T02:29:30.085Z,33.20
2023-12-11T02:30:30.097Z,33.18
2023-12-11T02:31:30.077Z,33.19
2023-12-11T02:32:30.096Z,33.20
2023-12-11T02:33:30.108Z,33.20
2023-12-11T02:34:30.139Z,33.20
2023-12-11T02:35:30.032Z,33.19
2023-12-11T02:36:30.085Z,33.20
2023-12-11T02:37:30.140Z,33.20
2023-12-11T02:38:30.047Z,33.19
2023-12-11T02:39:30.016Z,33.19
2023-12-11T02:40:29.980Z,33.20
2023-12-11T02:41:29.991Z,33.20
2023-12-11T02:42:30.016Z,33.21
2023-12-11T02:43:29.978Z,33.21
2023-12-11T02:44:29.936Z,33.22
2023-12-11T02:45:30.002Z,33.22
2023-12-11T02:46:29.954Z,33.22
2023-12-11T02:47:30.147Z,33.24
2023-12-11T02:48:29.951Z,33.23
2023-12-11T02:49:29.961Z,33.23
2023-12-11T02:50:29.892Z,33.24
2023-12-11T02:51:29.935Z,33.24
2023-12-11T02:52:29.886Z,33.26
2023-12-11T02:53:29.878Z,33.27
2023-12-11T02:54:30.010Z,33.25
2023-12-11T02:55:29.853Z,33.27
2023-12-11T02:56:30.497Z,33.26
2023-12-11T02:57:30.011Z,33.25
2023-12-11T02:58:29.816Z,33.26
2023-12-11T02:59:29.823Z,33.26
2023-12-11T03:00:29.800Z,33.25
2023-12-11T03:01:29.878Z,33.27
2023-12-11T03:02:29.806Z,33.24
2023-12-11T03:03:29.802Z,33.29
2023-12-11T03:04:29.882Z,33.26
2023-12-11T03:05:29.762Z,33.27
2023-12-11T03:06:29.795Z,33.28
2023-12-11T03:07:29.981Z,33.29
2023-12-11T03:08:29.738Z,33.29
2023-12-11T03:09:29.734Z,33.31
2023-12-11T03:10:29.714Z,33.31
2023-12-11T03:11:29.709Z,33.32
2023-12-11T03:12:29.702Z,33.33
2023-12-11T03:13:29.690Z,33.30
2023-12-11T03:14:29.689Z,33.31
2023-12-11T03:15:29.670Z,33.30
2023-12-11T03:16:29.677Z,33.31
2023-12-11T03:17:29.928Z,33.31
2023-12-11T03:18:29.698Z,33.31
2023-12-11T03:19:29.709Z,33.30
2023-12-11T03:20:29.640Z,33.33
2023-12-11T03:21:29.637Z,33.33
2023-12-11T03:22:29.625Z,33.33
2023-12-11T03:23:29.606Z,33.32
2023-12-11T03:24:29.582Z,33.35
2023-12-11T03:25:29.590Z,33.31
2023-12-11T03:26:29.566Z,33.29
2023-12-11T03:27:29.775Z,33.32
2023-12-11T03:28:29.557Z,33.34
2023-12-11T03:29:29.547Z,33.33
2023-12-11T03:30:29.532Z,33.34
2023-12-11T03:31:29.527Z,33.31
2023-12-11T03:32:29.530Z,33.34
2023-12-11T03:33:29.537Z,33.33
2023-12-11T03:34:29.512Z,33.32
2023-12-11T03:35:29.486Z,33.31
2023-12-11T03:36:29.482Z,33.33
2023-12-11T03:37:29.656Z,33.35
2023-12-11T03:38:29.473Z,33.34
2023-12-11T03:39:29.454Z,33.35
2023-12-11T03:40:29.452Z,33.34
2023-12-11T03:41:29.443Z,33.35
2023-12-11T03:42:29.429Z,33.34
2023-12-11T03:43:29.428Z,33.35
2023-12-11T03:44:29.401Z,33.36
2023-12-11T03:45:29.417Z,33.37
2023-12-11T03:46:29.386Z,33.36
2023-12-11T03:47:29.747Z,33.36
2023-12-11T03:48:29.449Z,33.37
2023-12-11T03:49:29.458Z,33.33
2023-12-11T03:50:29.343Z,33.36
2023-12-11T03:51:29.348Z,33.37
2023-12-11T03:52:29.327Z,33.39
2023-12-11T03:53:29.324Z,33.37
2023-12-11T03:54:29.319Z,33.37
2023-12-11T03:55:29.332Z,33.37
2023-12-11T03:56:29.314Z,33.36
2023-12-11T03:57:29.568Z,33.38
2023-12-11T03:58:29.281Z,33.38
2023-12-11T03:59:29.282Z,33.41
2023-12-11T04:00:29.277Z,33.42
2023-12-11T04:01:29.388Z,33.42
2023-12-11T04:02:29.411Z,33.42
2023-12-11T04:03:29.259Z,33.43
2023-12-11T04:04:29.305Z,33.43
2023-12-11T04:05:29.310Z,33.43
2023-12-11T04:06:29.203Z,33.45
2023-12-11T04:07:29.433Z,33.44
2023-12-11T04:08:29.191Z,33.43
2023-12-11T04:09:29.193Z,33.44
2023-12-11T04:10:29.167Z,33.45
2023-12-11T04:11:29.170Z,33.45
2023-12-11T04:12:29.146Z,33.47
2023-12-11T04:13:29.151Z,33.46
2023-12-11T04:14:29.136Z,33.45
2023-12-11T04:15:29.147Z,33.42
2023-12-11T04:16:29.110Z,33.47
2023-12-11T04:17:29.352Z,33.47
2023-12-11T04:18:29.127Z,33.49
2023-12-11T04:19:29.155Z,33.46
2023-12-11T04:20:29.076Z,33.45
2023-12-11T04:21:29.072Z,33.48
2023-12-11T04:22:29.068Z,33.48
2023-12-11T04:23:29.051Z,33.50
2023-12-11T04:24:29.046Z,33.48
2023-12-11T04:25:29.040Z,33.48
2023-12-11T04:26:29.027Z,33.52
2023-12-11T04:27:29.102Z,33.51
2023-12-11T04:28:28.999Z,33.51
2023-12-11T04:29:29.011Z,33.52
2023-12-11T04:30:28.980Z,33.51
2023-12-11T04:31:33.511Z,33.51
2023-12-11T04:32:29.000Z,33.53
2023-12-11T04:33:29.070Z,33.53
2023-12-11T04:34:28.976Z,33.55
2023-12-11T04:35:28.945Z,33.54
2023-12-11T04:36:28.926Z,33.55
2023-12-11T04:37:29.110Z,33.53
2023-12-11T04:38:28.905Z,33.54
2023-12-11T04:39:28.901Z,33.53
2023-12-11T04:40:28.892Z,33.54
2023-12-11T04:41:28.883Z,33.58
2023-12-11T04:42:28.881Z,33.55
2023-12-11T04:43:31.746Z,33.55
2023-12-11T04:44:28.860Z,33.57
2023-12-11T04:45:28.853Z,33.51
2023-12-11T04:46:28.843Z,33.54
2023-12-11T04:47:29.086Z,33.59
2023-12-11T04:48:28.935Z,33.59
2023-12-11T04:49:28.890Z,33.59
2023-12-11T04:50:28.806Z,33.57
2023-12-11T04:51:28.790Z,33.58
2023-12-11T04:52:28.785Z,33.59
2023-12-11T04:53:28.829Z,33.58
2023-12-11T04:54:28.763Z,33.60
2023-12-11T04:55:28.807Z,33.59
2023-12-11T04:56:28.738Z,33.60
2023-12-11T04:57:28.955Z,33.57
2023-12-11T04:58:28.729Z,33.57
2023-12-11T04:59:28.734Z,33.58
2023-12-11T05:00:28.740Z,33.59
2023-12-11T05:01:28.762Z,33.60
2023-12-11T05:02:28.719Z,33.59
2023-12-11T05:03:28.687Z,33.60
2023-12-11T05:04:28.682Z,33.57
2023-12-11T05:05:28.674Z,33.60
2023-12-11T05:06:28.674Z,33.59
2023-12-11T05:07:28.933Z,33.58
2023-12-11T05:08:30.470Z,33.56
2023-12-11T05:09:28.615Z,33.60
2023-12-11T05:10:28.625Z,33.60
2023-12-11T05:11:28.619Z,33.60
2023-12-11T05:12:28.604Z,33.57
2023-12-11T05:13:28.585Z,33.59
2023-12-11T05:14:29.595Z,33.58
2023-12-11T05:15:28.574Z,33.58
2023-12-11T05:16:28.638Z,33.58
2023-12-11T05:17:28.689Z,33.58
2023-12-11T05:18:28.544Z,33.56
2023-12-11T05:19:28.609Z,33.58
2023-12-11T05:20:28.525Z,33.57
2023-12-11T05:21:28.516Z,33.57
2023-12-11T05:22:28.512Z,33.56
2023-12-11T05:23:28.505Z,33.58
2023-12-11T05:24:28.489Z,33.57
2023-12-11T05:25:28.478Z,33.56
2023-12-11T05:26:28.497Z,33.55
2023-12-11T05:27:33.205Z,33.56
2023-12-11T05:28:28.460Z,33.57
2023-12-11T05:29:28.442Z,33.58
2023-12-11T05:30:28.456Z,33.57
2023-12-11T05:31:28.418Z,33.56
2023-12-11T05:32:28.440Z,33.54
2023-12-11T05:33:28.459Z,33.54
2023-12-11T05:34:28.445Z,33.56
2023-12-11T05:35:28.388Z,33.54
2023-12-11T05:36:28.385Z,33.54
2023-12-11T05:37:28.626Z,33.53
2023-12-11T05:38:28.365Z,33.52
2023-12-11T05:39:28.346Z,33.53
2023-12-11T05:40:28.480Z,33.52
2023-12-11T05:41:28.339Z,33.52
2023-12-11T05:42:28.349Z,33.52
2023-12-11T05:43:28.318Z,33.51
2023-12-11T05:44:28.321Z,33.51
2023-12-11T05:45:28.309Z,33.51
2023-12-11T05:46:28.294Z,33.50
2023-12-11T05:47:28.648Z,33.48
2023-12-11T05:48:28.339Z,33.50
2023-12-11T05:49:28.364Z,33.50
2023-12-11T05:50:28.443Z,33.49
2023-12-11T05:51:28.254Z,33.52
2023-12-11T05:52:28.260Z,33.49
2023-12-11T05:53:28.225Z,33.48
2023-12-11T05:54:28.232Z,33.51
2023-12-11T05:55:28.202Z,33.48
2023-12-11T05:56:28.229Z,33.49
2023-12-11T05:57:28.528Z,33.47
2023-12-11T05:58:28.227Z,33.47
2023-12-11T05:59:28.191Z,33.46
2023-12-11T06:00:38.256Z,33.47
2023-12-11T06:01:28.250Z,33.50
2023-12-11T06:02:28.195Z,33.48
2023-12-11T06:03:28.191Z,33.47
2023-12-11T06:04:28.135Z,33.48
2023-12-11T06:05:28.222Z,33.46
2023-12-11T06:06:30.954Z,33.48
2023-12-11T06:07:28.250Z,33.48
2023-12-11T06:08:28.101Z,33.48
2023-12-11T06:09:28.088Z,33.48
2023-12-11T06:10:28.122Z,33.48
2023-12-11T06:11:28.058Z,33.48
2023-12-11T06:12:28.087Z,33.47
2023-12-11T06:13:28.048Z,33.49
2023-12-11T06:14:28.048Z,33.49
2023-12-11T06:15:28.052Z,33.49
2023-12-11T06:16:28.030Z,33.50
2023-12-11T06:17:28.162Z,33.50
2023-12-11T06:18:28.089Z,33.49
2023-12-11T06:19:28.141Z,33.48
2023-12-11T06:20:28.003Z,33.50
2023-12-11T06:21:27.973Z,33.50
2023-12-11T06:22:27.982Z,33.49
2023-12-11T06:23:27.972Z,33.48
2023-12-11T06:24:27.958Z,33.48
2023-12-11T06:25:27.951Z,33.48
2023-12-11T06:26:27.934Z,33.49
2023-12-11T06:27:28.076Z,33.48
2023-12-11T06:28:27.973Z,33.48
2023-12-11T06:29:27.906Z,33.47
2023-12-11T06:30:27.897Z,33.47
2023-12-11T06:31:27.885Z,33.48
2023-12-11T06:32:27.908Z,33.48
2023-12-11T06:33:27.894Z,33.49
2023-12-11T06:34:27.914Z,33.50
2023-12-11T06:35:27.852Z,33.48
2023-12-11T06:36:27.867Z,33.48
2023-12-11T06:37:27.947Z,33.49
2023-12-11T06:38:27.836Z,33.46
2023-12-11T06:39:27.816Z,33.45
2023-12-11T06:40:27.885Z,33.45
2023-12-11T06:41:27.805Z,33.46
2023-12-11T06:42:27.812Z,33.44
2023-12-11T06:43:27.784Z,33.47
2023-12-11T06:44:27.854Z,33.44
2023-12-11T06:45:29.020Z,33.43
2023-12-11T06:46:27.956Z,33.46
2023-12-11T06:47:28.129Z,33.43
2023-12-11T06:48:27.989Z,33.45
2023-12-11T06:49:28.058Z,33.41
2023-12-11T06:50:28.063Z,33.42
2023-12-11T06:51:27.933Z,33.41
2023-12-11T06:52:27.944Z,33.41
2023-12-11T06:53:27.932Z,33.40
2023-12-11T06:54:27.921Z,33.50
2023-12-11T06:55:28.000Z,33.46
2023-12-11T06:56:27.999Z,33.39
2023-12-11T06:57:28.211Z,33.41
2023-12-11T06:58:33.147Z,33.53
2023-12-11T06:59:28.112Z,33.67
2023-12-11T07:00:28.126Z,33.68
2023-12-11T07:01:28.167Z,33.68
2023-12-11T07:02:28.248Z,33.95
2023-12-11T07:03:28.117Z,34.15
2023-12-11T07:04:28.198Z,34.16
2023-12-11T07:05:28.186Z,34.30
2023-12-11T07:06:28.058Z,34.38
2023-12-11T07:07:28.207Z,34.52
2023-12-11T07:08:27.996Z,34.69
2023-12-11T07:09:27.992Z,34.76
2023-12-11T07:10:28.023Z,34.86
2023-12-11T07:11:27.974Z,35.04
2023-12-11T07:12:27.976Z,35.60
2023-12-11T07:13:28.052Z,36.03
2023-12-11T07:14:27.955Z,36.15
2023-12-11T07:15:27.947Z,36.31
2023-12-11T07:16:27.940Z,36.18
2023-12-11T07:17:28.149Z,36.26
2023-12-11T07:18:27.998Z,36.56
2023-12-11T07:19:28.037Z,36.64
2023-12-11T07:20:27.898Z,36.46
2023-12-11T07:21:27.897Z,36.64
2023-12-11T07:22:27.885Z,36.66
2023-12-11T07:23:27.870Z,36.95
2023-12-11T07:24:27.858Z,36.90
2023-12-11T07:25:27.950Z,37.00
2023-12-11T07:26:27.843Z,36.92
2023-12-11T07:27:28.078Z,36.96
2023-12-11T07:28:27.838Z,36.87
2023-12-11T07:29:27.811Z,36.89
2023-12-11T07:30:27.826Z,36.93
2023-12-11T07:31:27.796Z,36.91
2023-12-11T07:32:27.840Z,36.99
2023-12-11T07:33:27.825Z,36.98
2023-12-11T07:34:27.861Z,37.16
2023-12-11T07:35:27.769Z,37.31
2023-12-11T07:36:27.761Z,37.66
2023-12-11T07:37:27.866Z,37.58
2023-12-11T07:38:27.741Z,37.44
2023-12-11T07:39:27.736Z,37.35
2023-12-11T07:40:27.781Z,37.22
2023-12-11T07:41:27.716Z,37.18
2023-12-11T07:42:27.740Z,37.25
2023-12-11T07:43:27.695Z,37.36
2023-12-11T07:44:27.689Z,37.39
2023-12-11T07:45:27.671Z,37.63
2023-12-11T07:46:27.680Z,37.65
2023-12-11T07:47:27.884Z,37.76
2023-12-11T07:48:27.763Z,37.65
2023-12-11T07:49:27.761Z,37.60
2023-12-11T07:50:27.644Z,37.61
2023-12-11T07:51:27.642Z,37.82
2023-12-11T07:52:27.639Z,37.60
2023-12-11T07:53:27.608Z,37.56
2023-12-11T07:54:27.598Z,37.50
2023-12-11T07:55:27.594Z,37.39
2023-12-11T07:56:27.588Z,37.45
2023-12-11T07:57:27.814Z,37.54
2023-12-11T07:58:27.568Z,37.47
2023-12-11T07:59:27.561Z,37.75
2023-12-11T08:00:27.613Z,37.57
2023-12-11T08:01:27.731Z,37.62
2023-12-11T08:02:27.722Z,37.69
2023-12-11T08:03:27.792Z,37.62
2023-12-11T08:04:27.885Z,37.67
2023-12-11T08:05:27.888Z,37.68
2023-12-11T08:06:27.919Z,37.71
2023-12-11T08:07:28.059Z,37.73
2023-12-11T08:08:28.034Z,37.70
2023-12-11T08:09:28.063Z,37.79
2023-12-11T08:10:28.186Z,37.93
2023-12-11T08:11:28.202Z,38.26
2023-12-11T08:12:28.222Z,38.09
2023-12-11T08:13:28.269Z,38.09
2023-12-11T08:14:28.315Z,38.05
2023-12-11T08:15:28.361Z,38.35
2023-12-11T08:16:28.448Z,38.43
2023-12-11T08:17:28.766Z,38.32
2023-12-11T08:18:28.568Z,38.29
2023-12-11T08:19:28.629Z,38.51
2023-12-11T08:20:28.629Z,38.25
2023-12-11T08:21:28.674Z,38.27
2023-12-11T08:22:28.721Z,38.25
2023-12-11T08:23:28.765Z,38.17
2023-12-11T08:24:28.818Z,38.30
2023-12-11T08:25:28.872Z,38.23
2023-12-11T08:26:28.942Z,38.28
2023-12-11T08:27:29.288Z,38.27
2023-12-11T08:28:29.018Z,38.21
2023-12-11T08:29:29.063Z,38.66
2023-12-11T08:30:29.119Z,38.43
2023-12-11T08:31:29.251Z,38.44
2023-12-11T08:32:29.254Z,38.56
2023-12-11T08:33:29.277Z,38.50
2023-12-11T08:34:29.435Z,38.41
2023-12-11T08:35:29.392Z,38.24
2023-12-11T08:36:29.425Z,38.29
2023-12-11T08:37:29.724Z,38.64
2023-12-11T08:38:29.533Z,38.12
2023-12-11T08:39:29.568Z,38.32
2023-12-11T08:40:29.662Z,38.33
2023-12-11T08:41:29.672Z,38.60
2023-12-11T08:42:30.060Z,38.58
2023-12-11T08:43:29.841Z,38.40
2023-12-11T08:44:29.822Z,38.45
2023-12-11T08:45:29.881Z,38.66
2023-12-11T08:46:29.921Z,38.57
2023-12-11T08:47:30.103Z,38.40
2023-12-11T08:48:30.166Z,36.71
2023-12-11T08:49:30.187Z,34.90
2023-12-11T08:50:30.135Z,34.57
2023-12-11T08:51:30.227Z,34.40
2023-12-11T08:52:30.237Z,34.52
2023-12-11T08:53:30.267Z,34.63
2023-12-11T08:54:30.358Z,34.14
2023-12-11T08:55:30.467Z,33.46
2023-12-11T09:02:43.331Z,38.60
2023-12-11T09:03:07.427Z,37.40
2023-12-11T09:39:14.749Z,42.55
2023-12-11T09:45:27.836Z,42.09
2023-12-11T09:45:50.916Z,40.27
2023-12-11T10:37:43.736Z,42.92
2023-12-11T10:38:18.141Z,41.99
2023-12-11T10:43:25.587Z,43.15
2023-12-11T10:44:01.506Z,42.10
2023-12-11T11:37:56.316Z,44.80
2023-12-11T12:01:43.662Z,44.51
2023-12-11T12:02:06.380Z,43.80
2023-12-11T12:03:06.549Z,43.72
2023-12-11T12:04:06.387Z,43.46
2023-12-11T12:05:07.715Z,43.30
2023-12-11T12:08:08.621Z,45.02
2023-12-11T12:08:29.851Z,43.62
2023-12-11T12:09:29.408Z,43.25
2023-12-11T12:10:29.626Z,43.08
2023-12-11T12:11:29.798Z,43.11
2023-12-11T12:12:29.532Z,43.06
2023-12-11T12:28:35.053Z,43.76
2023-12-11T12:29:11.689Z,40.97
2023-12-11T12:30:11.613Z,39.10
2023-12-11T12:31:11.697Z,38.40
2023-12-11T12:32:11.587Z,38.41
2023-12-11T12:39:22.626Z,39.44
2023-12-11T12:39:48.501Z,37.73
2023-12-11T12:48:19.925Z,38.77
2023-12-11T12:48:41.584Z,37.69
2023-12-11T12:49:41.425Z,37.27
2023-12-11T12:50:41.247Z,37.07
2023-12-11T12:51:41.281Z,36.99
2023-12-11T12:52:41.213Z,36.85
2023-12-11T12:53:41.192Z,36.97
2023-12-11T12:54:41.241Z,36.96
2023-12-11T12:55:41.252Z,36.96
2023-12-11T12:56:41.379Z,36.77
2023-12-11T12:57:41.176Z,36.68
2023-12-11T12:58:41.157Z,37.63
2023-12-11T12:59:41.232Z,36.93
2023-12-11T13:00:41.349Z,36.80
2023-12-11T13:01:41.284Z,36.77
2023-12-11T13:02:41.965Z,36.83
2023-12-11T13:03:41.151Z,36.89
2023-12-11T13:04:41.153Z,36.98
2023-12-11T13:05:41.134Z,36.84
2023-12-11T13:06:41.161Z,36.62
2023-12-11T13:07:41.070Z,36.40
2023-12-11T13:08:41.033Z,36.17
2023-12-11T13:09:41.058Z,35.95
2023-12-11T13:10:41.031Z,35.94
2023-12-11T13:11:41.388Z,35.80
2023-12-11T13:12:41.158Z,35.67
2023-12-11T13:13:41.002Z,35.52
2023-12-11T13:14:41.002Z,35.46
2023-12-11T13:15:41.188Z,35.38
2023-12-11T13:21:53.142Z,36.98
2023-12-11T13:22:14.795Z,35.93
2023-12-11T13:23:14.387Z,35.54
2023-12-11T13:24:14.406Z,35.41
2023-12-11T13:25:14.466Z,35.34
2023-12-11T13:26:14.372Z,35.23
2023-12-11T13:27:14.410Z,35.19
2023-12-11T13:28:14.507Z,35.17
2023-12-11T13:29:14.374Z,35.14
2023-12-11T13:30:14.377Z,35.11
2023-12-11T13:31:14.432Z,35.19
2023-12-11T13:32:14.476Z,35.33
2023-12-11T13:33:14.394Z,35.28
2023-12-11T13:34:14.405Z,35.16
2023-12-11T13:35:14.584Z,35.02
2023-12-11T13:36:14.276Z,34.96
2023-12-11T13:37:14.380Z,34.91
2023-12-11T13:38:14.289Z,35.00
2023-12-11T13:39:14.335Z,34.94
2023-12-11T13:40:14.435Z,35.00
2023-12-11T13:41:14.438Z,34.89
2023-12-11T13:42:14.476Z,34.77
2023-12-11T13:43:14.578Z,34.78
2023-12-11T13:44:14.249Z,34.73
2023-12-11T13:45:14.250Z,34.73
2023-12-11T14:47:01.509Z,46.23
2023-12-11T14:47:22.453Z,45.37
2023-12-11T14:48:22.653Z,45.11
2023-12-11T14:49:22.934Z,44.97
2023-12-11T14:50:22.899Z,44.72
2023-12-11T14:51:23.704Z,44.68
2023-12-11T14:52:22.459Z,44.70
2023-12-11T14:53:22.404Z,44.29
2023-12-11T14:54:22.373Z,43.94
2023-12-11T14:55:25.574Z,43.72
2023-12-11T14:56:22.416Z,43.56
2023-12-11T14:57:22.397Z,43.66
2023-12-11T15:22:21.687Z,44.49
2023-12-11T15:22:43.458Z,43.68
2023-12-11T15:39:54.512Z,44.44
2023-12-11T15:40:17.940Z,43.48
2023-12-11T16:02:01.454Z,44.54
2023-12-11T16:02:24.110Z,43.42
2023-12-11T16:03:24.276Z,43.39
2023-12-11T16:04:24.067Z,43.54
2023-12-11T16:05:24.009Z,42.82
2023-12-11T16:06:24.114Z,42.54
2023-12-11T16:07:24.053Z,42.92
2023-12-11T16:08:24.037Z,42.36
2023-12-11T16:09:24.149Z,42.31
2023-12-11T16:10:24.035Z,42.17
2023-12-11T16:11:23.987Z,41.81
2023-12-11T16:12:23.938Z,41.69
2023-12-11T16:13:23.974Z,42.11
2023-12-11T16:14:23.960Z,41.71
2023-12-11T16:15:23.951Z,41.83
2023-12-11T16:16:23.935Z,41.79
2023-12-11T16:17:23.911Z,42.06
2023-12-11T16:18:24.093Z,41.57
2023-12-11T16:19:23.983Z,41.41
2023-12-11T16:20:23.876Z,41.66
2023-12-11T16:21:23.856Z,41.56
2023-12-11T16:22:25.983Z,41.69
2023-12-11T16:23:23.933Z,42.11
2023-12-11T16:24:23.860Z,42.02
2023-12-11T16:25:47.781Z,41.89
2023-12-11T16:26:24.868Z,42.15
2023-12-11T16:53:29.681Z,44.34
2023-12-11T16:53:52.467Z,43.35
2023-12-11T16:54:52.629Z,42.92
2023-12-11T16:55:52.384Z,42.86
2023-12-11T16:56:52.407Z,42.76
2023-12-11T16:57:52.382Z,42.70
2023-12-11T16:58:52.362Z,42.82
2023-12-11T16:59:52.338Z,42.81
2023-12-11T17:00:52.423Z,42.70
2023-12-11T17:01:52.479Z,42.63
2023-12-11T17:02:52.327Z,42.54
2023-12-11T17:03:52.382Z,42.70
2023-12-11T17:04:52.414Z,42.53
2023-12-11T17:05:52.310Z,42.60
2023-12-11T17:06:52.310Z,42.47
2023-12-11T17:07:52.287Z,42.57
2023-12-11T17:08:52.289Z,42.61
2023-12-11T17:09:52.357Z,42.45
2023-12-11T17:51:23.994Z,43.58
2023-12-11T17:51:49.364Z,42.61
2023-12-11T17:52:49.495Z,42.34
2023-12-11T17:53:49.247Z,42.17
2023-12-11T17:54:49.448Z,42.10
2023-12-11T17:55:49.209Z,41.95
2023-12-11T17:56:49.210Z,41.93
2023-12-11T17:57:49.232Z,41.90
2023-12-11T17:58:49.204Z,42.01
2023-12-11T17:59:49.162Z,41.88
2023-12-11T18:00:49.353Z,41.78
2023-12-11T18:01:49.287Z,41.80
2023-12-11T18:02:49.148Z,41.91
2023-12-11T18:03:49.200Z,41.86
2023-12-11T18:04:49.244Z,41.83
2023-12-11T18:05:49.152Z,41.80
2023-12-11T18:06:49.219Z,41.81
2023-12-11T18:07:49.094Z,41.86
2023-12-11T18:08:49.085Z,41.67
2023-12-11T18:09:49.144Z,41.61
2023-12-11T18:10:49.098Z,41.53
2023-12-11T18:11:49.074Z,41.52
2023-12-11T18:12:49.128Z,41.55
2023-12-11T18:13:49.027Z,41.41
2023-12-11T18:14:49.041Z,41.52
2023-12-11T18:15:49.064Z,41.45
2023-12-11T18:16:49.020Z,41.52
2023-12-11T18:17:49.026Z,41.34
2023-12-11T18:18:49.069Z,41.26
2023-12-11T18:19:49.147Z,41.34
2023-12-11T18:20:48.977Z,41.39
2023-12-11T18:21:49.057Z,41.30
2023-12-11T18:22:48.972Z,41.35
2023-12-11T18:23:48.967Z,41.29
2023-12-11T18:24:49.003Z,41.28
2023-12-11T18:25:48.935Z,41.21
2023-12-11T18:26:48.958Z,41.14
2023-12-11T18:27:49.020Z,41.34
2023-12-11T18:28:48.988Z,41.05
2023-12-11T18:29:48.902Z,41.11
2023-12-11T18:30:48.988Z,40.92
2023-12-11T18:31:48.884Z,41.03
2023-12-11T18:32:48.997Z,40.96
2023-12-11T18:33:49.014Z,40.88
2023-12-11T18:34:54.567Z,41.05
2023-12-11T23:21:31.357Z,41.06
2023-12-11T23:21:53.791Z,40.36
2023-12-11T23:22:53.926Z,39.84
2023-12-11T23:23:53.711Z,39.66
2023-12-11T23:24:53.800Z,39.65
2023-12-11T23:25:58.842Z,39.79
2023-12-11T23:26:54.707Z,39.96
2023-12-11T23:27:53.690Z,39.60
2023-12-11T23:28:53.647Z,39.36
2023-12-11T23:30:00.491Z,39.39
2023-12-11T23:30:54.671Z,39.56
2023-12-11T23:31:53.635Z,39.55
2023-12-11T23:32:53.689Z,39.47
2023-12-11T23:33:53.677Z,39.65
2023-12-11T23:34:53.629Z,39.37
2023-12-11T23:35:53.589Z,39.41
2023-12-11T23:36:53.635Z,39.44
2023-12-11T23:37:53.593Z,39.40
2023-12-11T23:38:53.561Z,39.30
2023-12-11T23:39:53.598Z,39.36
2023-12-11T23:40:53.549Z,39.36
2023-12-11T23:41:53.538Z,39.11
2023-12-11T23:42:53.561Z,39.28
2023-12-11T23:44:14.515Z,39.29
2023-12-11T23:44:54.037Z,39.36
2023-12-11T23:45:53.512Z,39.50
2023-12-11T23:46:53.539Z,39.31
2023-12-11T23:47:53.508Z,39.27
2023-12-11T23:48:53.565Z,39.23
2023-12-11T23:49:53.572Z,39.32
2023-12-11T23:51:03.564Z,39.35
2023-12-11T23:51:53.466Z,39.38
2023-12-11T23:52:53.434Z,39.23
2023-12-11T23:53:53.461Z,39.23
2023-12-11T23:54:53.489Z,39.21
2023-12-11T23:55:53.402Z,39.09
2023-12-11T23:56:53.418Z,39.15
2023-12-11T23:57:53.426Z,39.39
2023-12-11T23:58:53.383Z,39.20
2023-12-11T23:59:53.412Z,39.17
